Time;durP1;ratioP1;P1;durP2;ratioP2;P2;SDS_P1;SDS_P2;PMS_P1;PMS_P2;Temp;Humidity;BMP_temperature;BMP_pressure;BME280_temperature;BME280_humidity;BME280_pressure;Samples;Min_cycle;Max_cycle;Signal;HPM_P1;HPM_P2
2023/12/28 00:00:37;;;;;;;5.40;2.25;;;20.30;48.50;;;;;;8351702;28;20048;-58
2023/12/28 00:04:37;;;;;;;5.82;2.78;;;20.30;48.40;;;;;;8353277;28;20040;-59
2023/12/28 00:08:38;;;;;;;4.55;2.22;;;20.30;48.50;;;;;;8347844;28;20190;-53
2023/12/28 00:12:39;;;;;;;4.82;2.45;;;20.30;48.40;;;;;;8360157;28;20514;-53
2023/12/28 00:16:39;;;;;;;4.97;2.63;;;20.30;48.30;;;;;;8360310;28;20451;-55
2023/12/28 00:20:40;;;;;;;11.82;2.60;;;20.20;48.20;;;;;;8358710;28;20079;-54
2023/12/28 00:24:41;;;;;;;7.75;2.50;;;20.20;48.50;;;;;;8362770;28;20662;-52
2023/12/28 00:28:41;;;;;;;8.20;3.03;;;20.20;48.40;;;;;;8362031;28;20318;-49
2023/12/28 00:32:45;;;;;;;11.98;3.28;;;19.90;47.60;;;;;;8363241;28;20044;-52
2023/12/28 00:36:46;;;;;;;14.65;4.43;;;19.90;46.70;;;;;;8363677;28;20029;-52
2023/12/28 00:40:47;;;;;;;6.10;2.80;;;19.80;46.80;;;;;;8363783;28;20118;-49
2023/12/28 00:44:47;;;;;;;7.05;2.90;;;19.90;46.60;;;;;;8362396;28;20056;-50
2023/12/28 00:48:48;;;;;;;7.28;3.08;;;19.90;46.90;;;;;;8363330;28;20092;-52
2023/12/28 00:52:49;;;;;;;8.80;3.28;;;19.80;46.80;;;;;;8363445;28;20039;-51
2023/12/28 00:56:50;;;;;;;6.43;3.08;;;19.80;46.90;;;;;;8363130;28;20064;-51
2023/12/28 01:00:53;;;;;;;5.15;2.65;;;19.80;47.00;;;;;;8363059;28;20037;-50
2023/12/28 01:04:54;;;;;;;8.82;3.13;;;19.80;47.10;;;;;;8362961;28;20032;-52
2023/12/28 01:08:57;;;;;;;6.88;2.83;;;19.80;47.60;;;;;;8362433;28;20048;-50
2023/12/28 01:12:58;;;;;;;8.45;2.80;;;19.80;47.20;;;;;;8362731;28;20041;-50
2023/12/28 01:16:59;;;;;;;6.88;3.17;;;19.80;47.30;;;;;;8362650;28;20075;-48
2023/12/28 01:20:59;;;;;;;6.35;2.50;;;19.80;47.30;;;;;;8344517;28;20041;-48
2023/12/28 01:25:00;;;;;;;7.72;2.80;;;19.80;47.40;;;;;;8361399;28;20631;-49
2023/12/28 01:29:03;;;;;;;5.68;2.60;;;19.70;47.60;;;;;;8362256;28;20037;-48
2023/12/28 01:33:04;;;;;;;6.30;2.40;;;19.70;47.60;;;;;;8362081;28;20063;-49
2023/12/28 01:37:05;;;;;;;7.13;2.85;;;19.70;47.60;;;;;;8362089;28;20029;-48
2023/12/28 01:41:06;;;;;;;3.58;2.38;;;19.60;47.70;;;;;;8361846;28;20039;-50
2023/12/28 01:45:07;;;;;;;4.00;2.28;;;19.60;47.70;;;;;;8361463;28;20029;-50
2023/12/28 01:49:08;;;;;;;4.85;2.30;;;19.60;47.60;;;;;;8361584;28;20045;-50
2023/12/28 01:53:09;;;;;;;3.92;2.50;;;19.60;47.70;;;;;;8362293;28;20113;-50
2023/12/28 01:57:12;;;;;;;4.30;2.40;;;19.60;47.70;;;;;;8361115;28;20033;-50
2023/12/28 02:01:13;;;;;;;4.75;2.47;;;19.70;47.80;;;;;;8361845;28;20067;-49
2023/12/28 02:05:14;;;;;;;4.53;2.35;;;19.60;47.80;;;;;;8361020;28;20045;-49
2023/12/28 02:09:15;;;;;;;4.18;2.97;;;19.60;47.80;;;;;;8359463;28;20108;-47
2023/12/28 02:13:16;;;;;;;4.03;2.38;;;19.60;47.90;;;;;;8360912;28;20032;-52
2023/12/28 02:17:43;;;;;;;2.92;2.10;;;19.60;48.20;;;;;;8361168;28;20052;-49
2023/12/28 02:21:44;;;;;;;5.55;2.55;;;19.50;48.00;;;;;;8361010;28;20036;-50
2023/12/28 02:25:45;;;;;;;3.65;2.42;;;19.50;48.10;;;;;;8360444;28;20067;-48
2023/12/28 02:29:46;;;;;;;4.00;2.30;;;19.50;48.10;;;;;;8359216;28;20064;-49
2023/12/28 02:33:58;;;;;;;4.82;2.17;;;19.50;48.10;;;;;;8360396;28;20104;-50
2023/12/28 02:38:06;;;;;;;4.25;2.60;;;19.50;48.10;;;;;;8360091;28;20382;-50
2023/12/28 02:42:06;;;;;;;5.00;2.38;;;19.50;48.20;;;;;;8359917;28;20405;-50
2023/12/28 02:46:07;;;;;;;3.42;1.92;;;19.40;48.20;;;;;;8358885;28;20107;-47
2023/12/28 02:50:08;;;;;;;3.53;1.80;;;19.50;48.30;;;;;;8359728;28;20029;-50
2023/12/28 02:54:09;;;;;;;5.13;2.15;;;19.50;48.30;;;;;;8359901;28;20390;-48
2023/12/28 02:58:09;;;;;;;3.78;2.35;;;19.40;48.20;;;;;;8359893;28;20471;-49
2023/12/28 03:02:10;;;;;;;4.30;2.30;;;19.50;48.20;;;;;;8359532;28;20083;-48
2023/12/28 03:06:11;;;;;;;4.13;2.17;;;19.50;48.20;;;;;;8359529;28;20057;-48
2023/12/28 03:10:12;;;;;;;4.30;2.40;;;19.40;48.80;;;;;;8359705;28;20500;-48
2023/12/28 03:14:13;;;;;;;4.10;2.20;;;19.40;48.20;;;;;;8359225;28;20028;-49
2023/12/28 03:18:13;;;;;;;3.17;2.13;;;19.40;48.20;;;;;;8359542;28;20547;-50
2023/12/28 03:22:15;;;;;;;3.65;2.35;;;19.40;48.20;;;;;;8359405;28;20037;-49
2023/12/28 03:26:16;;;;;;;3.15;2.05;;;19.40;48.30;;;;;;8359459;28;20029;-51
2023/12/28 03:30:16;;;;;;;4.43;2.67;;;19.40;48.20;;;;;;8359800;28;20493;-52
2023/12/28 03:34:17;;;;;;;3.17;1.90;;;19.40;48.30;;;;;;8358971;28;20363;-51
2023/12/28 03:38:18;;;;;;;5.28;2.17;;;19.40;48.30;;;;;;8359067;28;20443;-51
2023/12/28 03:42:18;;;;;;;5.13;2.80;;;19.40;48.20;;;;;;8359019;28;20044;-51
2023/12/28 03:46:19;;;;;;;4.03;2.13;;;19.40;48.30;;;;;;8357704;28;20037;-50
2023/12/28 03:50:20;;;;;;;3.53;2.00;;;19.40;48.30;;;;;;8365119;28;20479;-51
2023/12/28 03:54:20;;;;;;;3.38;2.15;;;19.40;48.30;;;;;;8365464;28;20112;-51
2023/12/28 03:58:21;;;;;;;2.55;1.90;;;19.40;48.20;;;;;;8365029;28;20051;-52
2023/12/28 04:02:24;;;;;;;2.75;1.98;;;19.40;48.30;;;;;;8365021;28;20483;-49
2023/12/28 04:06:25;;;;;;;13.25;1.80;;;19.40;48.60;;;;;;8364443;28;20061;-50
2023/12/28 04:10:31;;;;;;;2.65;1.98;;;19.40;48.60;;;;;;8364620;28;20067;-48
2023/12/28 04:14:32;;;;;;;3.05;1.45;;;19.30;48.50;;;;;;8364684;28;20040;-49
2023/12/28 04:18:33;;;;;;;3.17;1.80;;;19.30;48.60;;;;;;8364619;28;20037;-49
2023/12/28 04:22:33;;;;;;;2.95;1.85;;;19.30;48.60;;;;;;8364370;28;20813;-50
2023/12/28 04:26:34;;;;;;;4.45;2.25;;;19.30;48.60;;;;;;8364257;28;20397;-49
2023/12/28 04:30:35;;;;;;;3.38;1.73;;;19.30;48.50;;;;;;8363972;28;20086;-50
2023/12/28 04:34:36;;;;;;;2.92;1.73;;;19.30;48.30;;;;;;8363944;28;20033;-49
2023/12/28 04:38:38;;;;;;;2.95;1.88;;;19.30;48.40;;;;;;8364003;28;20056;-49
2023/12/28 04:42:39;;;;;;;2.40;1.83;;;19.30;48.40;;;;;;8363682;28;20040;-49
2023/12/28 04:46:42;;;;;;;2.53;1.55;;;19.30;48.60;;;;;;8363665;28;20037;-51
2023/12/28 04:50:43;;;;;;;2.63;1.80;;;19.30;48.50;;;;;;8363439;28;20049;-48
2023/12/28 04:54:43;;;;;;;4.45;1.90;;;19.30;48.60;;;;;;8363323;28;20041;-48
2023/12/28 04:58:45;;;;;;;3.45;2.00;;;19.30;48.70;;;;;;8362240;28;20041;-49
2023/12/28 05:02:46;;;;;;;2.08;1.52;;;19.30;48.70;;;;;;8363290;28;20037;-48
2023/12/28 05:06:47;;;;;;;3.25;1.95;;;19.30;48.60;;;;;;8362682;28;20053;-49
2023/12/28 05:10:47;;;;;;;2.58;1.95;;;19.30;48.80;;;;;;8363541;28;20520;-49
2023/12/28 05:14:48;;;;;;;2.22;1.85;;;19.30;48.70;;;;;;8362651;28;20056;-50
2023/12/28 05:18:49;;;;;;;2.47;1.85;;;19.30;48.80;;;;;;8362631;28;20171;-50
2023/12/28 05:22:49;;;;;;;2.70;2.00;;;19.30;48.60;;;;;;8361343;28;20037;-50
2023/12/28 05:26:50;;;;;;;2.13;1.90;;;19.40;48.50;;;;;;8362187;28;20041;-50
2023/12/28 05:30:51;;;;;;;2.35;1.52;;;19.50;48.40;;;;;;8362110;28;20517;-50
2023/12/28 05:34:52;;;;;;;2.90;2.08;;;19.50;48.30;;;;;;8362023;28;20037;-50
2023/12/28 05:38:52;;;;;;;2.53;1.60;;;19.50;48.10;;;;;;8362248;28;20418;-49
2023/12/28 05:42:53;;;;;;;2.80;1.85;;;19.60;48.30;;;;;;8360671;28;20041;-50
2023/12/28 05:46:54;;;;;;;2.40;1.77;;;19.60;48.00;;;;;;8361473;28;20044;-50
2023/12/28 05:50:54;;;;;;;3.50;1.85;;;19.60;48.00;;;;;;8361389;28;20119;-51
2023/12/28 05:54:56;;;;;;;2.55;1.90;;;19.60;47.90;;;;;;8361376;28;20430;-52
2023/12/28 05:58:57;;;;;;;2.28;1.48;;;19.60;47.90;;;;;;8361097;28;20033;-49
2023/12/28 06:02:57;;;;;;;1.75;1.55;;;19.60;47.80;;;;;;8361685;28;20211;-49
2023/12/28 06:06:58;;;;;;;2.28;1.63;;;19.60;47.80;;;;;;8360808;28;20079;-48
2023/12/28 06:10:59;;;;;;;2.47;1.88;;;19.60;47.80;;;;;;8360462;28;20538;-47
2023/12/28 06:15:01;;;;;;;4.10;1.70;;;19.60;48.00;;;;;;8360801;28;20033;-48
2023/12/28 06:19:01;;;;;;;3.30;1.55;;;19.60;48.10;;;;;;8360444;28;20040;-48
2023/12/28 06:23:02;;;;;;;1.90;1.60;;;19.60;47.70;;;;;;8360764;28;20064;-51
2023/12/28 06:27:03;;;;;;;2.30;1.60;;;19.60;47.70;;;;;;8360470;28;20025;-48
2023/12/28 06:31:04;;;;;;;2.40;1.60;;;19.50;47.60;;;;;;8360026;28;20068;-49
2023/12/28 06:35:05;;;;;;;;;;;19.50;47.80;;;;;;8360693;28;20055;-51
2023/12/28 06:39:06;;;;;;;2.93;1.80;;;19.50;47.60;;;;;;8360192;28;19905;-48
2023/12/28 06:43:07;;;;;;;2.13;1.50;;;19.60;47.80;;;;;;8360026;28;20283;-49
2023/12/28 06:47:07;;;;;;;3.00;1.77;;;19.60;47.80;;;;;;8359969;28;20406;-48
2023/12/28 06:51:08;;;;;;;2.85;1.63;;;19.60;48.30;;;;;;8359721;28;20029;-47
2023/12/28 06:55:09;;;;;;;2.97;1.67;;;19.60;47.90;;;;;;8359933;28;20028;-48
2023/12/28 06:59:12;;;;;;;2.00;1.58;;;19.60;47.80;;;;;;8360082;28;20120;-49
2023/12/28 07:03:12;;;;;;;1.83;1.42;;;19.60;48.30;;;;;;8359658;28;20037;-49
2023/12/28 07:07:13;;;;;;;2.45;1.63;;;19.60;47.70;;;;;;8359736;28;20053;-51
2023/12/28 07:11:14;;;;;;;1.65;1.38;;;19.60;47.80;;;;;;8359380;28;20128;-51
2023/12/28 07:15:14;;;;;;;1.90;1.50;;;19.60;47.90;;;;;;8359359;28;20044;-52
2023/12/28 07:19:15;;;;;;;2.55;1.73;;;19.60;47.80;;;;;;8359582;28;20029;-51
2023/12/28 07:23:16;;;;;;;2.45;1.73;;;19.60;47.60;;;;;;8363067;28;20110;-51
2023/12/28 07:27:16;;;;;;;1.90;1.42;;;19.60;47.80;;;;;;8366144;28;20167;-52
2023/12/28 07:31:24;;;;;;;1.95;1.58;;;19.50;47.60;;;;;;8365852;28;20387;-52
2023/12/28 07:35:26;;;;;;;1.50;1.40;;;19.60;47.90;;;;;;8365973;28;20028;-52
2023/12/28 07:39:26;;;;;;;;;;;19.50;47.80;;;;;;8365750;28;20029;-52
2023/12/28 07:43:28;;;;;;;1.73;1.40;;;19.60;47.70;;;;;;8365640;28;19915;-50
2023/12/28 07:47:28;;;;;;;;;;;19.60;47.80;;;;;;8365829;28;20033;-51
2023/12/28 07:51:29;;;;;;;2.40;1.43;;;19.60;48.10;;;;;;8365203;28;19909;-51
2023/12/28 07:55:30;;;;;;;2.17;1.58;;;19.60;48.20;;;;;;8364146;28;20433;-51
2023/12/28 07:59:30;;;;;;;1.50;1.20;;;19.60;48.00;;;;;;8364832;28;20017;-51
2023/12/28 08:03:31;;;;;;;2.13;1.58;;;19.60;47.90;;;;;;8365213;28;20056;-52
2023/12/28 08:07:32;;;;;;;2.17;1.65;;;19.60;47.80;;;;;;8364433;28;20060;-52
2023/12/28 08:11:33;;;;;;;2.17;1.67;;;19.60;47.80;;;;;;8364627;28;20029;-53
2023/12/28 08:15:33;;;;;;;1.60;1.30;;;19.50;47.80;;;;;;8364726;28;20040;-53
2023/12/28 08:19:34;;;;;;;4.13;1.30;;;19.50;47.90;;;;;;8364338;28;20040;-52
2023/12/28 08:23:35;;;;;;;4.20;1.70;;;19.60;48.20;;;;;;8364279;28;20489;-54
2023/12/28 08:27:35;;;;;;;2.55;1.40;;;19.60;48.20;;;;;;8364183;28;20071;-54
2023/12/28 08:31:36;;;;;;;3.13;1.70;;;19.60;48.20;;;;;;8363900;28;20044;-54
2023/12/28 08:35:36;;;;;;;2.88;1.60;;;19.60;48.30;;;;;;8363792;28;20033;-53
2023/12/28 08:39:39;;;;;;;2.80;1.67;;;19.60;48.30;;;;;;8363813;28;20120;-50
2023/12/28 08:43:39;;;;;;;10.23;1.70;;;19.60;48.20;;;;;;8363826;28;20086;-53
2023/12/28 08:47:40;;;;;;;3.10;1.40;;;19.60;48.20;;;;;;8363381;28;20036;-49
2023/12/28 08:51:42;;;;;;;2.10;1.48;;;19.70;48.40;;;;;;8363571;28;20122;-49
2023/12/28 08:55:43;;;;;;;3.67;1.38;;;19.60;48.30;;;;;;8363371;28;20027;-51
2023/12/28 08:59:43;;;;;;;4.78;1.33;;;19.60;48.10;;;;;;8363071;28;20029;-54
2023/12/28 09:03:44;;;;;;;3.40;1.70;;;19.70;48.30;;;;;;8362968;28;20067;-53
2023/12/28 09:07:45;;;;;;;;;;;19.70;48.20;;;;;;8363592;28;20049;-52
2023/12/28 09:11:46;;;;;;;5.10;1.57;;;19.70;48.30;;;;;;8362633;28;19913;-53
2023/12/28 09:15:46;;;;;;;2.85;1.73;;;19.70;48.50;;;;;;8362741;28;20094;-52
2023/12/28 09:19:47;;;;;;;2.47;1.30;;;19.70;48.40;;;;;;8362605;28;20033;-52
2023/12/28 09:23:48;;;;;;;1.48;1.15;;;19.70;48.50;;;;;;8362483;28;20119;-55
2023/12/28 09:27:48;;;;;;;3.55;1.42;;;19.70;47.90;;;;;;8362449;28;20078;-53
2023/12/28 09:31:49;;;;;;;9.23;1.65;;;19.70;48.00;;;;;;8362201;28;20044;-53
2023/12/28 09:35:50;;;;;;;5.97;1.48;;;19.70;47.80;;;;;;8361949;28;20479;-50
2023/12/28 09:39:50;;;;;;;9.95;1.60;;;19.70;49.60;;;;;;8360751;28;20039;-52
2023/12/28 09:44:12;;;;;;;5.38;1.20;;;19.80;49.60;;;;;;8361683;28;20040;-50
2023/12/28 09:48:17;;;;;;;10.60;1.40;;;19.80;49.10;;;;;;8361565;28;20025;-53
2023/12/28 09:52:18;;;;;;;10.75;1.90;;;19.90;48.50;;;;;;8361190;28;20036;-51
2023/12/28 09:56:19;;;;;;;4.78;1.30;;;19.80;48.80;;;;;;8361511;28;20037;-52
2023/12/28 10:00:20;;;;;;;2.35;1.65;;;19.80;48.80;;;;;;8361409;28;20033;-52
2023/12/28 10:04:21;;;;;;;7.32;1.67;;;19.80;48.60;;;;;;8361223;28;20032;-53
2023/12/28 10:08:22;;;;;;;;;;;19.70;48.60;;;;;;8361538;28;20048;-52
2023/12/28 10:12:23;;;;;;;6.60;2.13;;;19.80;48.80;;;;;;8360795;28;19919;-50
2023/12/28 10:16:24;;;;;;;3.35;1.70;;;19.70;48.80;;;;;;8360955;28;20029;-51
2023/12/28 10:20:28;;;;;;;2.30;1.60;;;19.70;48.70;;;;;;8359571;28;20116;-51
2023/12/28 10:24:28;;;;;;;2.45;1.42;;;19.70;48.70;;;;;;8358921;28;20069;-53
2023/12/28 10:28:32;;;;;;;4.25;1.77;;;19.70;48.50;;;;;;8360371;28;20503;-52
2023/12/28 10:32:33;;;;;;;5.25;1.50;;;19.80;49.50;;;;;;8360887;28;20025;-56
2023/12/28 10:36:36;;;;;;;6.47;2.35;;;19.80;50.40;;;;;;8360241;28;20037;-51
2023/12/28 10:40:39;;;;;;;6.10;2.30;;;19.90;50.30;;;;;;8357604;28;20071;-53
2023/12/28 10:44:46;;;;;;;4.80;1.83;;;19.90;50.10;;;;;;8359876;28;20394;-53
2023/12/28 10:48:50;;;;;;;4.90;2.40;;;19.90;50.20;;;;;;8359923;28;20040;-49
2023/12/28 10:52:56;;;;;;;5.53;1.75;;;19.90;50.30;;;;;;8359764;28;20044;-51
2023/12/28 10:57:09;;;;;;;7.28;2.38;;;19.90;50.20;;;;;;8358668;28;20043;-48
2023/12/28 11:01:14;;;;;;;3.90;1.98;;;19.90;50.10;;;;;;8359873;28;20112;-51
2023/12/28 11:05:17;;;;;;;4.95;1.90;;;19.90;50.10;;;;;;8359483;28;20521;-49
2023/12/28 11:09:20;;;;;;;2.67;1.70;;;19.90;50.00;;;;;;8358275;28;20037;-49
2023/12/28 11:13:21;;;;;;;3.97;1.95;;;19.90;50.00;;;;;;8359500;28;20386;-53
2023/12/28 11:17:26;;;;;;;3.90;1.60;;;19.90;49.70;;;;;;8355758;28;20094;-53
2023/12/28 11:21:28;;;;;;;6.18;3.20;;;19.90;49.40;;;;;;8349778;28;20044;-53
2023/12/28 11:25:32;;;;;;;7.10;3.90;;;19.60;47.40;;;;;;8359393;28;20504;-53
2023/12/28 11:29:33;;;;;;;7.20;4.55;;;19.30;45.90;;;;;;8359206;28;20036;-49
2023/12/28 11:33:51;;;;;;;11.65;4.57;;;19.40;46.40;;;;;;8359456;28;20029;-55
2023/12/28 11:37:54;;;;;;;6.50;3.88;;;19.60;46.90;;;;;;8350122;28;20115;-52
2023/12/28 11:42:05;;;;;;;10.63;4.68;;;19.70;45.70;;;;;;8343908;28;20502;-50
2023/12/28 11:46:08;;;;;;;8.93;3.78;;;19.70;46.50;;;;;;8343849;28;20034;-49
2023/12/28 11:50:09;;;;;;;9.93;4.22;;;19.80;46.80;;;;;;8338652;28;20037;-51
2023/12/28 11:54:09;;;;;;;;;;;19.80;46.80;;;;;;8328536;28;20029;-53
2023/12/28 11:58:10;;;;;;;8.20;4.23;;;19.90;47.30;;;;;;8348974;28;19909;-45
2023/12/28 12:02:11;;;;;;;8.07;4.40;;;19.90;47.90;;;;;;8342845;28;20475;-47
2023/12/28 12:06:12;;;;;;;7.72;3.97;;;20.00;48.20;;;;;;8348994;28;20486;-47
2023/12/28 12:10:15;;;;;;;5.05;3.47;;;20.00;47.70;;;;;;8347125;28;20045;-49
2023/12/28 12:14:16;;;;;;;7.32;3.80;;;20.00;47.70;;;;;;8355784;28;20051;-45
2023/12/28 12:18:17;;;;;;;7.25;3.50;;;20.00;47.60;;;;;;8360257;28;20603;-48
2023/12/28 12:22:18;;;;;;;6.22;3.75;;;20.00;47.60;;;;;;8361234;28;20414;-46
2023/12/28 12:26:19;;;;;;;5.85;3.35;;;20.10;48.40;;;;;;8358136;28;20059;-48
2023/12/28 12:30:20;;;;;;;4.68;3.28;;;20.10;47.70;;;;;;8358228;28;20037;-47
2023/12/28 12:34:21;;;;;;;7.38;4.10;;;20.10;47.90;;;;;;8356852;28;20108;-45
2023/12/28 12:38:23;;;;;;;7.40;3.20;;;20.00;47.70;;;;;;8350430;28;20409;-45
2023/12/28 12:42:24;;;;;;;9.43;3.47;;;20.10;48.20;;;;;;8360156;28;20475;-46
2023/12/28 12:46:25;;;;;;;6.22;3.35;;;20.10;48.20;;;;;;8342054;28;20112;-46
2023/12/28 12:50:25;;;;;;;8.93;3.67;;;20.10;48.60;;;;;;8360161;28;20033;-45
2023/12/28 12:54:27;;;;;;;9.38;3.65;;;20.20;48.60;;;;;;8358523;28;20029;-45
2023/12/28 12:58:32;;;;;;;8.00;3.20;;;20.20;48.50;;;;;;8359534;28;20402;-48
2023/12/28 13:02:33;;;;;;;12.98;3.20;;;20.20;48.70;;;;;;8359422;28;20306;-47
2023/12/28 13:06:34;;;;;;;7.63;3.28;;;20.30;48.60;;;;;;8359134;28;20061;-54
2023/12/28 13:10:35;;;;;;;8.82;3.20;;;20.20;48.60;;;;;;8358899;28;20033;-48
2023/12/28 13:14:35;;;;;;;5.35;2.88;;;20.20;48.30;;;;;;8359223;28;20470;-46
2023/12/28 13:18:36;;;;;;;6.47;2.97;;;20.20;48.70;;;;;;8358664;28;20556;-47
2023/12/28 13:22:37;;;;;;;6.85;3.00;;;20.20;48.90;;;;;;8358061;28;20021;-48
2023/12/28 13:26:37;;;;;;;9.32;2.85;;;20.30;48.80;;;;;;8359034;28;20152;-43
2023/12/28 13:30:39;;;;;;;10.48;3.22;;;20.40;49.00;;;;;;8358676;28;20037;-46
2023/12/28 13:34:40;;;;;;;9.80;3.40;;;20.40;48.60;;;;;;8358704;28;20025;-45
2023/12/28 13:38:40;;;;;;;9.07;3.20;;;20.40;49.10;;;;;;8357991;28;20074;-47
2023/12/28 13:42:44;;;;;;;10.38;2.72;;;20.40;49.20;;;;;;8357924;28;20139;-47
2023/12/28 13:46:44;;;;;;;11.38;3.15;;;20.40;49.30;;;;;;8357920;28;20549;-48
2023/12/28 13:50:45;;;;;;;7.80;2.90;;;20.40;49.30;;;;;;8355651;28;20394;-47
2023/12/28 13:54:46;;;;;;;10.63;3.10;;;20.40;49.30;;;;;;8356832;28;20037;-46
2023/12/28 13:58:46;;;;;;;10.55;2.88;;;20.40;49.40;;;;;;8358018;28;20041;-46
2023/12/28 14:02:47;;;;;;;10.75;3.35;;;20.40;49.30;;;;;;8355515;28;20449;-47
2023/12/28 14:06:48;;;;;;;6.90;2.90;;;20.40;49.80;;;;;;8356757;28;20444;-46
2023/12/28 14:10:48;;;;;;;6.40;2.47;;;20.50;49.50;;;;;;8356931;28;20048;-46
2023/12/28 14:14:49;;;;;;;6.03;2.85;;;20.40;49.50;;;;;;8356087;28;20041;-48
2023/12/28 14:18:51;;;;;;;6.97;3.03;;;20.50;49.80;;;;;;8356629;28;20065;-47
2023/12/28 14:22:52;;;;;;;10.90;2.92;;;20.40;49.60;;;;;;8356168;28;20490;-47
2023/12/28 14:26:54;;;;;;;10.88;3.20;;;20.50;50.00;;;;;;8356646;28;20458;-48
2023/12/28 14:30:55;;;;;;;10.73;3.40;;;20.50;50.30;;;;;;8354863;28;20072;-47
2023/12/28 14:34:56;;;;;;;5.32;2.65;;;20.50;50.40;;;;;;8356536;28;20044;-46
2023/12/28 14:38:57;;;;;;;8.30;2.85;;;20.50;50.40;;;;;;8355709;28;20032;-49
2023/12/28 14:42:58;;;;;;;9.15;2.42;;;20.50;50.70;;;;;;8355671;28;20048;-47
2023/12/28 14:46:59;;;;;;;8.95;3.30;;;20.50;50.70;;;;;;8356060;28;20477;-47
2023/12/28 14:50:59;;;;;;;3.60;2.53;;;20.50;50.50;;;;;;8355844;28;20029;-48
2023/12/28 14:55:00;;;;;;;7.53;2.92;;;20.50;50.70;;;;;;8356244;28;20037;-48
2023/12/28 14:59:01;;;;;;;9.25;2.47;;;20.50;50.70;;;;;;8355570;28;20057;-48
2023/12/28 15:03:01;;;;;;;15.27;3.90;;;20.50;50.40;;;;;;8354748;28;20088;-47
2023/12/28 15:07:02;;;;;;;11.90;5.40;;;20.20;49.30;;;;;;8354148;28;21290;-46
2023/12/28 15:11:03;;;;;;;8.85;4.57;;;20.20;49.00;;;;;;8355242;28;20501;-47
2023/12/28 15:15:04;;;;;;;;;;;20.30;48.90;;;;;;8355826;28;20115;-47
2023/12/28 15:19:06;;;;;;;23.05;4.15;;;20.30;49.00;;;;;;8355452;28;19971;-44
2023/12/28 15:23:07;;;;;;;14.55;3.95;;;20.40;49.00;;;;;;8354965;28;20490;-44
2023/12/28 15:27:08;;;;;;;;;;;20.40;49.50;;;;;;8355333;28;20098;-46
2023/12/28 15:31:08;;;;;;;11.63;3.73;;;20.40;49.40;;;;;;8354466;28;19917;-46
2023/12/28 15:35:14;;;;;;;12.13;3.97;;;20.40;49.10;;;;;;8353607;28;20029;-46
2023/12/28 15:39:15;;;;;;;10.13;3.70;;;20.50;49.30;;;;;;8355303;28;20028;-47
2023/12/28 15:43:16;;;;;;;22.77;3.65;;;20.50;49.60;;;;;;8356660;28;20045;-47
2023/12/28 15:47:19;;;;;;;12.35;3.38;;;20.50;49.90;;;;;;8361306;28;20028;-45
2023/12/28 15:51:20;;;;;;;19.05;4.57;;;20.50;49.70;;;;;;8361059;28;20079;-48
2023/12/28 15:55:21;;;;;;;13.18;4.50;;;20.50;49.70;;;;;;8360837;28;20037;-49
2023/12/28 15:59:22;;;;;;;12.25;3.95;;;20.50;49.70;;;;;;8361034;28;20442;-51
2023/12/28 16:03:23;;;;;;;9.77;3.28;;;20.50;49.60;;;;;;8358494;28;20107;-45
2023/12/28 16:07:23;;;;;;;15.32;4.18;;;20.50;49.90;;;;;;8359629;28;20056;-45
2023/12/28 16:11:24;;;;;;;8.13;3.42;;;20.50;49.80;;;;;;8359904;28;20045;-47
2023/12/28 16:15:25;;;;;;;6.15;3.10;;;20.50;49.50;;;;;;8342503;28;20052;-47
2023/12/28 16:19:26;;;;;;;11.13;3.47;;;20.50;49.70;;;;;;8360082;28;20029;-47
2023/12/28 16:23:27;;;;;;;6.90;3.47;;;20.50;49.80;;;;;;8360017;28;20511;-47
2023/12/28 16:27:28;;;;;;;7.07;3.50;;;20.50;50.20;;;;;;8359649;28;20402;-47
2023/12/28 16:31:29;;;;;;;;;;;20.40;50.10;;;;;;8360493;28;20471;-46
2023/12/28 16:35:30;;;;;;;7.25;3.20;;;20.50;50.40;;;;;;8358075;28;19905;-52
2023/12/28 16:39:31;;;;;;;7.15;3.05;;;20.50;50.30;;;;;;8359370;28;20029;-46
2023/12/28 16:43:32;;;;;;;7.93;3.58;;;20.40;50.30;;;;;;8359306;28;20486;-46
2023/12/28 16:47:33;;;;;;;8.32;3.10;;;20.50;50.30;;;;;;8357989;28;20044;-45
2023/12/28 16:51:33;;;;;;;25.13;8.10;;;20.50;50.50;;;;;;8358800;28;20490;-45
2023/12/28 16:55:34;;;;;;;26.63;8.80;;;20.50;52.80;;;;;;8359180;28;20021;-47
2023/12/28 16:59:35;;;;;;;31.08;8.05;;;20.60;53.70;;;;;;8358037;28;20044;-46
2023/12/28 17:03:36;;;;;;;28.17;8.52;;;20.70;53.80;;;;;;8358717;28;20475;-46
2023/12/28 17:07:36;;;;;;;;;;;20.60;54.50;;;;;;8358241;28;20406;-48
2023/12/28 17:11:42;;;;;;;14.93;7.10;;;20.50;51.60;;;;;;8358136;28;19996;-44
2023/12/28 17:15:43;;;;;;;17.23;8.13;;;20.10;50.60;;;;;;8358456;28;20482;-45
2023/12/28 17:19:43;;;;;;;14.45;7.65;;;19.80;47.70;;;;;;8358357;28;20386;-45
2023/12/28 17:23:48;;;;;;;17.60;8.15;;;19.60;47.10;;;;;;8358377;28;20037;-45
2023/12/28 17:27:53;;;;;;;15.55;7.18;;;19.40;45.80;;;;;;8358418;28;20394;-45
2023/12/28 17:31:56;;;;;;;13.15;6.63;;;19.80;45.50;;;;;;8357296;28;20551;-46
2023/12/28 17:35:57;;;;;;;15.45;7.57;;;20.10;45.10;;;;;;8357353;28;20474;-46
2023/12/28 17:39:58;;;;;;;12.95;7.85;;;20.40;45.40;;;;;;8357109;28;20394;-48
2023/12/28 17:44:06;;;;;;;28.00;7.53;;;20.50;46.20;;;;;;8357564;28;20529;-50
2023/12/28 17:48:09;;;;;;;13.65;6.72;;;20.70;47.80;;;;;;8355930;28;20473;-49
2023/12/28 17:52:12;;;;;;;14.63;6.82;;;20.90;47.60;;;;;;8357485;28;20044;-47
2023/12/28 17:56:17;;;;;;;15.95;6.78;;;20.90;47.60;;;;;;8357018;28;20036;-48
2023/12/28 18:00:18;;;;;;;19.42;6.50;;;21.00;47.30;;;;;;8357045;28;20037;-48
2023/12/28 18:04:18;;;;;;;12.90;5.80;;;20.80;48.20;;;;;;8357159;28;20033;-47
2023/12/28 18:08:19;;;;;;;12.05;5.57;;;20.70;48.90;;;;;;8356025;28;20044;-48
2023/12/28 18:12:20;;;;;;;11.32;5.80;;;20.80;48.30;;;;;;8354896;28;20033;-49
2023/12/28 18:16:21;;;;;;;12.65;5.53;;;20.80;47.80;;;;;;8356143;28;20041;-48
2023/12/28 18:20:22;;;;;;;8.55;5.43;;;20.90;47.70;;;;;;8356382;28;20115;-49
2023/12/28 18:24:23;;;;;;;14.25;6.15;;;20.90;47.30;;;;;;8356350;28;20037;-48
2023/12/28 18:28:23;;;;;;;12.10;5.28;;;21.00;47.50;;;;;;8355600;28;20049;-49
2023/12/28 18:32:24;;;;;;;10.25;5.50;;;21.00;47.20;;;;;;8356084;28;20051;-48
2023/12/28 18:36:25;;;;;;;7.93;5.30;;;21.00;47.10;;;;;;8355049;28;20082;-48
2023/12/28 18:40:25;;;;;;;12.73;5.88;;;21.10;47.00;;;;;;8355602;28;20409;-47
2023/12/28 18:44:32;;;;;;;13.30;5.50;;;21.10;47.00;;;;;;8355591;28;20139;-46
2023/12/28 18:48:32;;;;;;;13.40;5.90;;;21.10;47.10;;;;;;8355796;28;20040;-49
2023/12/28 18:52:33;;;;;;;10.48;5.38;;;21.00;48.00;;;;;;8355258;28;20120;-50
2023/12/28 18:56:34;;;;;;;11.13;5.25;;;20.90;48.60;;;;;;8352707;28;20048;-50
2023/12/28 19:00:36;;;;;;;11.55;5.35;;;20.90;48.00;;;;;;8355433;28;20035;-52
2023/12/28 19:04:37;;;;;;;10.77;4.90;;;21.00;47.70;;;;;;8354885;28;20039;-47
2023/12/28 19:08:37;;;;;;;10.35;4.85;;;21.10;47.20;;;;;;8351911;28;20069;-53
2023/12/28 19:12:38;;;;;;;16.65;5.53;;;21.20;46.90;;;;;;8354953;28;20041;-48
2023/12/28 19:16:39;;;;;;;10.82;4.93;;;21.30;46.80;;;;;;8355804;28;20037;-48
2023/12/28 19:20:40;;;;;;;11.63;5.22;;;21.20;46.70;;;;;;8359800;28;20055;-54
2023/12/28 19:24:41;;;;;;;8.50;4.15;;;21.20;46.60;;;;;;8361280;28;20063;-53
2023/12/28 19:28:42;;;;;;;13.68;5.07;;;21.20;46.50;;;;;;8362509;28;20492;-48
2023/12/28 19:32:42;;;;;;;12.23;5.43;;;21.20;46.30;;;;;;8362647;28;20393;-53
2023/12/28 19:36:43;;;;;;;10.00;5.20;;;21.30;46.20;;;;;;8360501;28;20482;-51
2023/12/28 19:40:44;;;;;;;10.90;5.40;;;21.30;46.20;;;;;;8362363;28;20036;-47
2023/12/28 19:44:45;;;;;;;13.63;4.55;;;21.30;46.20;;;;;;8360614;28;20079;-48
2023/12/28 19:48:46;;;;;;;11.63;4.65;;;21.30;46.40;;;;;;8360918;28;20482;-46
2023/12/28 19:52:46;;;;;;;10.30;4.18;;;21.30;46.10;;;;;;8360855;28;20037;-48
2023/12/28 19:56:47;;;;;;;12.80;4.95;;;21.30;46.20;;;;;;8362657;28;20029;-54
2023/12/28 20:00:48;;;;;;;10.45;4.22;;;21.30;46.00;;;;;;8361232;28;20037;-52
2023/12/28 20:04:49;;;;;;;12.40;5.20;;;21.40;46.00;;;;;;8361706;28;20040;-53
2023/12/28 20:08:49;;;;;;;8.73;4.60;;;21.40;46.10;;;;;;8361242;28;20065;-53
2023/12/28 20:12:50;;;;;;;10.98;4.43;;;21.40;46.20;;;;;;8360802;28;20029;-50
2023/12/28 20:16:51;;;;;;;9.65;4.60;;;21.40;46.20;;;;;;8361204;28;20112;-47
2023/12/28 20:20:52;;;;;;;9.18;4.05;;;21.40;46.30;;;;;;8361008;28;20031;-53
2023/12/28 20:24:53;;;;;;;11.75;4.80;;;21.30;46.20;;;;;;8361091;28;20525;-53
2023/12/28 20:28:53;;;;;;;9.20;4.25;;;21.30;46.20;;;;;;8359060;28;20032;-52
2023/12/28 20:32:54;;;;;;;7.90;4.10;;;21.30;46.10;;;;;;8360312;28;20025;-52
2023/12/28 20:36:55;;;;;;;13.50;4.43;;;21.30;46.20;;;;;;8360574;28;21303;-51
2023/12/28 20:40:55;;;;;;;12.05;4.40;;;21.30;46.20;;;;;;8359801;28;20032;-52
2023/12/28 20:44:56;;;;;;;11.70;4.32;;;21.30;46.20;;;;;;8360295;28;20025;-54
2023/12/28 20:48:58;;;;;;;7.25;4.15;;;21.30;46.10;;;;;;8360102;28;20513;-54
2023/12/28 20:52:59;;;;;;;10.43;4.10;;;21.30;47.20;;;;;;8359555;28;20037;-55